sensor_id;sensor_type;location;lat;lon;timestamp;P1;durP1;ratioP1;P2;durP2;ratioP2
59127;SDS011;44912;52.754;5.994;2023-04-08T00:00:02;14.98;;;11.10;;
59127;SDS011;44912;52.754;5.994;2023-04-08T00:02:30;13.82;;;10.23;;
59127;SDS011;44912;52.754;5.994;2023-04-08T00:04:56;15.57;;;11.50;;
59127;SDS011;44912;52.754;5.994;2023-04-08T00:07:21;14.98;;;11.32;;
59127;SDS011;44912;52.754;5.994;2023-04-08T00:09:47;14.45;;;11.00;;
59127;SDS011;44912;52.754;5.994;2023-04-08T00:12:12;16.10;;;10.90;;
59127;SDS011;44912;52.754;5.994;2023-04-08T00:14:38;14.48;;;11.25;;
59127;SDS011;44912;52.754;5.994;2023-04-08T00:17:05;14.52;;;10.82;;
59127;SDS011;44912;52.754;5.994;2023-04-08T00:19:31;14.27;;;10.52;;
59127;SDS011;44912;52.754;5.994;2023-04-08T00:21:57;16.05;;;10.93;;
59127;SDS011;44912;52.754;5.994;2023-04-08T00:24:23;15.15;;;10.95;;
59127;SDS011;44912;52.754;5.994;2023-04-08T00:26:49;15.48;;;11.32;;
59127;SDS011;44912;52.754;5.994;2023-04-08T00:29:15;14.95;;;11.25;;
59127;SDS011;44912;52.754;5.994;2023-04-08T00:31:40;16.25;;;11.23;;
59127;SDS011;44912;52.754;5.994;2023-04-08T00:34:06;14.18;;;10.70;;
59127;SDS011;44912;52.754;5.994;2023-04-08T00:36:31;15.63;;;11.52;;
59127;SDS011;44912;52.754;5.994;2023-04-08T00:38:57;14.13;;;11.25;;
59127;SDS011;44912;52.754;5.994;2023-04-08T00:41:23;16.20;;;11.63;;
59127;SDS011;44912;52.754;5.994;2023-04-08T00:43:48;14.52;;;11.23;;
59127;SDS011;44912;52.754;5.994;2023-04-08T00:46:14;17.98;;;11.15;;
59127;SDS011;44912;52.754;5.994;2023-04-08T00:48:40;14.48;;;10.75;;
59127;SDS011;44912;52.754;5.994;2023-04-08T00:51:06;14.48;;;10.80;;
59127;SDS011;44912;52.754;5.994;2023-04-08T00:53:32;16.35;;;11.32;;
59127;SDS011;44912;52.754;5.994;2023-04-08T00:55:57;16.02;;;11.23;;
59127;SDS011;44912;52.754;5.994;2023-04-08T00:58:25;15.30;;;11.10;;
59127;SDS011;44912;52.754;5.994;2023-04-08T01:00:54;14.48;;;10.98;;
59127;SDS011;44912;52.754;5.994;2023-04-08T01:03:37;14.45;;;9.90;;
59127;SDS011;44912;52.754;5.994;2023-04-08T01:06:15;14.90;;;10.55;;
59127;SDS011;44912;52.754;5.994;2023-04-08T01:09:06;14.30;;;10.55;;
59127;SDS011;44912;52.754;5.994;2023-04-08T01:11:33;15.00;;;10.70;;
59127;SDS011;44912;52.754;5.994;2023-04-08T01:14:00;16.33;;;11.10;;
59127;SDS011;44912;52.754;5.994;2023-04-08T01:16:30;15.45;;;10.82;;
59127;SDS011;44912;52.754;5.994;2023-04-08T01:18:57;16.80;;;10.98;;
59127;SDS011;44912;52.754;5.994;2023-04-08T01:21:23;16.42;;;10.98;;
59127;SDS011;44912;52.754;5.994;2023-04-08T01:26:23;15.35;;;10.70;;
59127;SDS011;44912;52.754;5.994;2023-04-08T01:28:51;15.90;;;10.27;;
59127;SDS011;44912;52.754;5.994;2023-04-08T01:31:20;18.17;;;11.40;;
59127;SDS011;44912;52.754;5.994;2023-04-08T01:33:47;17.33;;;11.05;;
59127;SDS011;44912;52.754;5.994;2023-04-08T01:36:14;14.70;;;10.60;;
59127;SDS011;44912;52.754;5.994;2023-04-08T01:38:41;14.68;;;10.30;;
59127;SDS011;44912;52.754;5.994;2023-04-08T01:41:08;14.73;;;10.73;;
59127;SDS011;44912;52.754;5.994;2023-04-08T01:43:35;18.17;;;10.75;;
59127;SDS011;44912;52.754;5.994;2023-04-08T01:46:03;15.10;;;10.50;;
59127;SDS011;44912;52.754;5.994;2023-04-08T01:48:30;17.17;;;11.30;;
59127;SDS011;44912;52.754;5.994;2023-04-08T01:50:57;15.73;;;10.93;;
59127;SDS011;44912;52.754;5.994;2023-04-08T01:53:24;15.52;;;10.15;;
59127;SDS011;44912;52.754;5.994;2023-04-08T01:55:51;15.80;;;10.48;;
59127;SDS011;44912;52.754;5.994;2023-04-08T01:58:21;15.68;;;10.73;;
59127;SDS011;44912;52.754;5.994;2023-04-08T02:00:48;17.23;;;11.02;;
59127;SDS011;44912;52.754;5.994;2023-04-08T02:03:17;13.90;;;10.45;;
59127;SDS011;44912;52.754;5.994;2023-04-08T02:05:45;15.40;;;10.63;;
59127;SDS011;44912;52.754;5.994;2023-04-08T02:08:11;14.70;;;10.32;;
59127;SDS011;44912;52.754;5.994;2023-04-08T02:10:36;14.98;;;10.32;;
59127;SDS011;44912;52.754;5.994;2023-04-08T02:13:02;14.88;;;9.90;;
59127;SDS011;44912;52.754;5.994;2023-04-08T02:15:27;16.85;;;10.73;;
59127;SDS011;44912;52.754;5.994;2023-04-08T02:17:59;14.48;;;10.07;;
59127;SDS011;44912;52.754;5.994;2023-04-08T02:20:42;14.55;;;9.50;;
59127;SDS011;44912;52.754;5.994;2023-04-08T02:23:16;14.90;;;10.48;;
59127;SDS011;44912;52.754;5.994;2023-04-08T02:25:44;15.77;;;10.55;;
59127;SDS011;44912;52.754;5.994;2023-04-08T02:28:11;18.05;;;10.48;;
59127;SDS011;44912;52.754;5.994;2023-04-08T02:30:43;17.60;;;10.48;;
59127;SDS011;44912;52.754;5.994;2023-04-08T02:33:12;14.82;;;9.98;;
59127;SDS011;44912;52.754;5.994;2023-04-08T02:35:39;15.07;;;10.70;;
59127;SDS011;44912;52.754;5.994;2023-04-08T02:38:05;15.18;;;10.32;;
59127;SDS011;44912;52.754;5.994;2023-04-08T02:40:32;16.40;;;10.32;;
59127;SDS011;44912;52.754;5.994;2023-04-08T02:42:58;15.98;;;10.68;;
59127;SDS011;44912;52.754;5.994;2023-04-08T02:45:26;15.20;;;9.75;;
59127;SDS011;44912;52.754;5.994;2023-04-08T02:47:55;15.18;;;10.35;;
59127;SDS011;44912;52.754;5.994;2023-04-08T02:50:20;15.13;;;10.65;;
59127;SDS011;44912;52.754;5.994;2023-04-08T02:52:46;14.52;;;9.63;;
59127;SDS011;44912;52.754;5.994;2023-04-08T02:55:11;15.95;;;10.30;;
59127;SDS011;44912;52.754;5.994;2023-04-08T02:57:40;15.48;;;10.10;;
59127;SDS011;44912;52.754;5.994;2023-04-08T03:00:06;13.82;;;9.95;;
59127;SDS011;44912;52.754;5.994;2023-04-08T03:02:33;16.80;;;10.65;;
59127;SDS011;44912;52.754;5.994;2023-04-08T03:04:58;15.85;;;11.23;;
59127;SDS011;44912;52.754;5.994;2023-04-08T03:07:24;17.00;;;10.70;;
59127;SDS011;44912;52.754;5.994;2023-04-08T03:09:50;16.45;;;10.35;;
59127;SDS011;44912;52.754;5.994;2023-04-08T03:12:16;16.10;;;10.60;;
59127;SDS011;44912;52.754;5.994;2023-04-08T03:14:41;16.50;;;11.00;;
59127;SDS011;44912;52.754;5.994;2023-04-08T03:17:07;17.83;;;11.00;;
59127;SDS011;44912;52.754;5.994;2023-04-08T03:19:33;17.35;;;11.55;;
59127;SDS011;44912;52.754;5.994;2023-04-08T03:21:58;16.50;;;10.93;;
59127;SDS011;44912;52.754;5.994;2023-04-08T03:24:24;15.82;;;11.13;;
59127;SDS011;44912;52.754;5.994;2023-04-08T03:26:49;17.00;;;11.30;;
59127;SDS011;44912;52.754;5.994;2023-04-08T03:29:15;17.95;;;11.60;;
59127;SDS011;44912;52.754;5.994;2023-04-08T03:31:40;17.52;;;11.88;;
59127;SDS011;44912;52.754;5.994;2023-04-08T03:34:06;18.25;;;11.88;;
59127;SDS011;44912;52.754;5.994;2023-04-08T03:36:31;17.15;;;11.93;;
59127;SDS011;44912;52.754;5.994;2023-04-08T03:38:57;16.55;;;11.75;;
59127;SDS011;44912;52.754;5.994;2023-04-08T03:41:23;17.83;;;12.10;;
59127;SDS011;44912;52.754;5.994;2023-04-08T03:43:48;17.40;;;12.18;;
59127;SDS011;44912;52.754;5.994;2023-04-08T03:46:14;19.50;;;12.65;;
59127;SDS011;44912;52.754;5.994;2023-04-08T03:48:39;17.98;;;11.80;;
59127;SDS011;44912;52.754;5.994;2023-04-08T03:51:05;18.17;;;11.82;;
59127;SDS011;44912;52.754;5.994;2023-04-08T03:53:30;19.88;;;12.35;;
59127;SDS011;44912;52.754;5.994;2023-04-08T03:55:56;16.63;;;12.05;;
59127;SDS011;44912;52.754;5.994;2023-04-08T03:58:21;18.90;;;12.95;;
59127;SDS011;44912;52.754;5.994;2023-04-08T04:00:47;18.38;;;12.43;;
59127;SDS011;44912;52.754;5.994;2023-04-08T04:03:12;19.92;;;12.65;;
59127;SDS011;44912;52.754;5.994;2023-04-08T04:05:38;18.25;;;13.27;;
59127;SDS011;44912;52.754;5.994;2023-04-08T04:08:04;21.38;;;14.32;;
59127;SDS011;44912;52.754;5.994;2023-04-08T04:10:30;19.75;;;14.30;;
59127;SDS011;44912;52.754;5.994;2023-04-08T04:12:56;22.27;;;14.38;;
59127;SDS011;44912;52.754;5.994;2023-04-08T04:15:21;20.58;;;13.77;;
59127;SDS011;44912;52.754;5.994;2023-04-08T04:17:47;21.15;;;14.90;;
59127;SDS011;44912;52.754;5.994;2023-04-08T04:20:16;20.33;;;14.88;;
59127;SDS011;44912;52.754;5.994;2023-04-08T04:22:42;21.90;;;15.07;;
59127;SDS011;44912;52.754;5.994;2023-04-08T04:25:08;21.95;;;16.08;;
59127;SDS011;44912;52.754;5.994;2023-04-08T04:27:34;22.58;;;15.90;;
59127;SDS011;44912;52.754;5.994;2023-04-08T04:30:00;24.90;;;17.08;;
59127;SDS011;44912;52.754;5.994;2023-04-08T04:32:27;24.95;;;15.57;;
59127;SDS011;44912;52.754;5.994;2023-04-08T04:34:52;23.65;;;16.55;;
59127;SDS011;44912;52.754;5.994;2023-04-08T04:37:18;23.10;;;16.58;;
59127;SDS011;44912;52.754;5.994;2023-04-08T04:39:43;24.35;;;17.13;;
59127;SDS011;44912;52.754;5.994;2023-04-08T04:42:09;27.35;;;17.73;;
59127;SDS011;44912;52.754;5.994;2023-04-08T04:44:35;27.60;;;16.70;;
59127;SDS011;44912;52.754;5.994;2023-04-08T04:47:01;23.80;;;17.13;;
59127;SDS011;44912;52.754;5.994;2023-04-08T04:49:26;25.83;;;17.25;;
59127;SDS011;44912;52.754;5.994;2023-04-08T04:51:52;27.15;;;18.38;;
59127;SDS011;44912;52.754;5.994;2023-04-08T04:54:17;24.10;;;17.27;;
59127;SDS011;44912;52.754;5.994;2023-04-08T04:56:43;26.20;;;17.38;;
59127;SDS011;44912;52.754;5.994;2023-04-08T04:59:08;24.27;;;17.20;;
59127;SDS011;44912;52.754;5.994;2023-04-08T05:01:34;24.85;;;16.65;;
59127;SDS011;44912;52.754;5.994;2023-04-08T05:04:00;27.67;;;18.85;;
59127;SDS011;44912;52.754;5.994;2023-04-08T05:06:25;25.45;;;17.23;;
59127;SDS011;44912;52.754;5.994;2023-04-08T05:08:51;27.02;;;18.38;;
59127;SDS011;44912;52.754;5.994;2023-04-08T05:11:17;24.17;;;17.27;;
59127;SDS011;44912;52.754;5.994;2023-04-08T05:13:43;28.30;;;18.23;;
59127;SDS011;44912;52.754;5.994;2023-04-08T05:16:08;26.10;;;18.58;;
59127;SDS011;44912;52.754;5.994;2023-04-08T05:18:34;25.95;;;18.05;;
59127;SDS011;44912;52.754;5.994;2023-04-08T05:21:00;25.25;;;17.92;;
59127;SDS011;44912;52.754;5.994;2023-04-08T05:23:26;26.42;;;17.95;;
59127;SDS011;44912;52.754;5.994;2023-04-08T05:25:52;23.58;;;17.17;;
59127;SDS011;44912;52.754;5.994;2023-04-08T05:28:17;22.92;;;17.05;;
59127;SDS011;44912;52.754;5.994;2023-04-08T05:30:52;25.52;;;17.73;;
59127;SDS011;44912;52.754;5.994;2023-04-08T05:33:18;25.63;;;17.70;;
59127;SDS011;44912;52.754;5.994;2023-04-08T05:35:44;26.27;;;17.83;;
59127;SDS011;44912;52.754;5.994;2023-04-08T05:38:10;28.17;;;18.50;;
59127;SDS011;44912;52.754;5.994;2023-04-08T05:40:35;31.17;;;19.13;;
59127;SDS011;44912;52.754;5.994;2023-04-08T05:43:01;27.55;;;19.05;;
59127;SDS011;44912;52.754;5.994;2023-04-08T05:45:28;29.48;;;19.45;;
59127;SDS011;44912;52.754;5.994;2023-04-08T05:47:54;29.13;;;19.88;;
59127;SDS011;44912;52.754;5.994;2023-04-08T05:50:20;27.73;;;18.85;;
59127;SDS011;44912;52.754;5.994;2023-04-08T05:52:45;25.50;;;18.83;;
59127;SDS011;44912;52.754;5.994;2023-04-08T05:55:11;28.13;;;18.92;;
59127;SDS011;44912;52.754;5.994;2023-04-08T05:57:38;27.00;;;19.98;;
59127;SDS011;44912;52.754;5.994;2023-04-08T06:00:05;29.88;;;19.40;;
59127;SDS011;44912;52.754;5.994;2023-04-08T06:02:32;27.30;;;18.83;;
59127;SDS011;44912;52.754;5.994;2023-04-08T06:04:58;27.40;;;19.50;;
59127;SDS011;44912;52.754;5.994;2023-04-08T06:07:24;31.05;;;20.92;;
59127;SDS011;44912;52.754;5.994;2023-04-08T06:09:49;32.40;;;21.33;;
59127;SDS011;44912;52.754;5.994;2023-04-08T06:12:15;32.72;;;21.42;;
59127;SDS011;44912;52.754;5.994;2023-04-08T06:14:40;31.92;;;21.48;;
59127;SDS011;44912;52.754;5.994;2023-04-08T06:17:06;29.95;;;21.40;;
59127;SDS011;44912;52.754;5.994;2023-04-08T06:19:31;31.88;;;21.77;;
59127;SDS011;44912;52.754;5.994;2023-04-08T06:21:57;30.02;;;20.40;;
59127;SDS011;44912;52.754;5.994;2023-04-08T06:24:26;29.23;;;20.70;;
59127;SDS011;44912;52.754;5.994;2023-04-08T06:26:53;31.77;;;20.75;;
59127;SDS011;44912;52.754;5.994;2023-04-08T06:29:20;33.13;;;21.27;;
59127;SDS011;44912;52.754;5.994;2023-04-08T06:31:47;37.85;;;23.08;;
59127;SDS011;44912;52.754;5.994;2023-04-08T06:34:12;32.63;;;22.75;;
59127;SDS011;44912;52.754;5.994;2023-04-08T06:36:38;32.63;;;22.23;;
59127;SDS011;44912;52.754;5.994;2023-04-08T06:39:03;33.85;;;23.13;;
59127;SDS011;44912;52.754;5.994;2023-04-08T06:41:29;34.05;;;22.70;;
59127;SDS011;44912;52.754;5.994;2023-04-08T06:43:55;38.60;;;24.08;;
59127;SDS011;44912;52.754;5.994;2023-04-08T06:46:20;36.60;;;24.73;;
59127;SDS011;44912;52.754;5.994;2023-04-08T06:48:46;35.65;;;25.00;;
59127;SDS011;44912;52.754;5.994;2023-04-08T06:51:11;38.53;;;25.10;;
59127;SDS011;44912;52.754;5.994;2023-04-08T06:53:37;34.15;;;24.30;;
59127;SDS011;44912;52.754;5.994;2023-04-08T06:56:03;38.72;;;24.40;;
59127;SDS011;44912;52.754;5.994;2023-04-08T06:58:28;37.42;;;25.27;;
59127;SDS011;44912;52.754;5.994;2023-04-08T07:00:54;35.75;;;24.45;;
59127;SDS011;44912;52.754;5.994;2023-04-08T07:03:20;38.53;;;25.42;;
59127;SDS011;44912;52.754;5.994;2023-04-08T07:05:46;36.65;;;23.90;;
59127;SDS011;44912;52.754;5.994;2023-04-08T07:08:11;37.58;;;25.10;;
59127;SDS011;44912;52.754;5.994;2023-04-08T07:10:37;37.17;;;25.02;;
59127;SDS011;44912;52.754;5.994;2023-04-08T07:13:03;36.53;;;24.92;;
59127;SDS011;44912;52.754;5.994;2023-04-08T07:15:28;36.03;;;23.85;;
59127;SDS011;44912;52.754;5.994;2023-04-08T07:17:54;39.03;;;25.05;;
59127;SDS011;44912;52.754;5.994;2023-04-08T07:20:23;38.08;;;24.85;;
59127;SDS011;44912;52.754;5.994;2023-04-08T07:22:50;39.63;;;24.83;;
59127;SDS011;44912;52.754;5.994;2023-04-08T07:25:16;39.28;;;25.90;;
59127;SDS011;44912;52.754;5.994;2023-04-08T07:27:42;37.22;;;24.92;;
59127;SDS011;44912;52.754;5.994;2023-04-08T07:30:07;39.08;;;25.65;;
59127;SDS011;44912;52.754;5.994;2023-04-08T07:32:33;40.47;;;26.48;;
59127;SDS011;44912;52.754;5.994;2023-04-08T07:34:59;38.80;;;25.35;;
59127;SDS011;44912;52.754;5.994;2023-04-08T07:37:26;36.38;;;25.25;;
59127;SDS011;44912;52.754;5.994;2023-04-08T07:39:51;38.50;;;25.50;;
59127;SDS011;44912;52.754;5.994;2023-04-08T07:42:17;35.22;;;24.40;;
59127;SDS011;44912;52.754;5.994;2023-04-08T07:44:43;37.22;;;24.70;;
59127;SDS011;44912;52.754;5.994;2023-04-08T07:47:09;36.92;;;25.85;;
59127;SDS011;44912;52.754;5.994;2023-04-08T07:49:36;36.47;;;24.52;;
59127;SDS011;44912;52.754;5.994;2023-04-08T07:52:02;40.25;;;24.88;;
59127;SDS011;44912;52.754;5.994;2023-04-08T07:54:30;39.05;;;25.00;;
59127;SDS011;44912;52.754;5.994;2023-04-08T07:56:58;36.38;;;24.25;;
59127;SDS011;44912;52.754;5.994;2023-04-08T07:59:25;35.00;;;24.08;;
59127;SDS011;44912;52.754;5.994;2023-04-08T08:01:51;36.38;;;25.55;;
59127;SDS011;44912;52.754;5.994;2023-04-08T08:04:16;36.55;;;25.20;;
59127;SDS011;44912;52.754;5.994;2023-04-08T08:06:42;36.00;;;25.33;;
59127;SDS011;44912;52.754;5.994;2023-04-08T08:09:07;37.58;;;25.60;;
59127;SDS011;44912;52.754;5.994;2023-04-08T08:11:33;36.70;;;25.73;;
59127;SDS011;44912;52.754;5.994;2023-04-08T08:13:59;33.33;;;24.23;;
59127;SDS011;44912;52.754;5.994;2023-04-08T08:16:27;33.33;;;24.75;;
59127;SDS011;44912;52.754;5.994;2023-04-08T08:18:53;37.38;;;25.42;;
59127;SDS011;44912;52.754;5.994;2023-04-08T08:21:18;35.83;;;24.25;;
59127;SDS011;44912;52.754;5.994;2023-04-08T08:23:44;33.90;;;25.10;;
59127;SDS011;44912;52.754;5.994;2023-04-08T08:26:10;33.33;;;24.30;;
59127;SDS011;44912;52.754;5.994;2023-04-08T08:28:35;33.53;;;24.75;;
59127;SDS011;44912;52.754;5.994;2023-04-08T08:31:04;30.83;;;22.75;;
59127;SDS011;44912;52.754;5.994;2023-04-08T08:33:30;30.83;;;23.00;;
59127;SDS011;44912;52.754;5.994;2023-04-08T08:35:56;31.25;;;23.02;;
59127;SDS011;44912;52.754;5.994;2023-04-08T08:38:22;30.77;;;22.02;;
59127;SDS011;44912;52.754;5.994;2023-04-08T08:40:55;30.23;;;21.75;;
59127;SDS011;44912;52.754;5.994;2023-04-08T08:43:25;31.95;;;22.27;;
59127;SDS011;44912;52.754;5.994;2023-04-08T08:45:52;31.85;;;22.95;;
59127;SDS011;44912;52.754;5.994;2023-04-08T08:48:18;31.15;;;22.30;;
59127;SDS011;44912;52.754;5.994;2023-04-08T08:50:44;31.35;;;22.42;;
59127;SDS011;44912;52.754;5.994;2023-04-08T08:53:10;29.23;;;21.80;;
59127;SDS011;44912;52.754;5.994;2023-04-08T08:55:36;34.20;;;22.77;;
59127;SDS011;44912;52.754;5.994;2023-04-08T08:58:05;30.55;;;21.33;;
59127;SDS011;44912;52.754;5.994;2023-04-08T09:00:32;27.60;;;21.35;;
59127;SDS011;44912;52.754;5.994;2023-04-08T09:05:47;27.92;;;20.45;;
59127;SDS011;44912;52.754;5.994;2023-04-08T09:10:50;25.20;;;18.70;;
59127;SDS011;44912;52.754;5.994;2023-04-08T09:13:16;26.55;;;18.55;;
59127;SDS011;44912;52.754;5.994;2023-04-08T09:16:01;25.27;;;18.23;;
59127;SDS011;44912;52.754;5.994;2023-04-08T09:18:29;24.17;;;17.83;;
59127;SDS011;44912;52.754;5.994;2023-04-08T09:20:55;22.77;;;16.52;;
59127;SDS011;44912;52.754;5.994;2023-04-08T09:23:20;22.67;;;16.70;;
59127;SDS011;44912;52.754;5.994;2023-04-08T09:25:46;22.92;;;17.27;;
59127;SDS011;44912;52.754;5.994;2023-04-08T09:28:18;23.35;;;17.67;;
59127;SDS011;44912;52.754;5.994;2023-04-08T09:30:47;22.38;;;17.13;;
59127;SDS011;44912;52.754;5.994;2023-04-08T09:33:13;21.88;;;17.90;;
59127;SDS011;44912;52.754;5.994;2023-04-08T09:35:38;21.33;;;16.70;;
59127;SDS011;44912;52.754;5.994;2023-04-08T09:38:04;21.33;;;15.73;;
59127;SDS011;44912;52.754;5.994;2023-04-08T09:40:31;22.33;;;15.82;;
59127;SDS011;44912;52.754;5.994;2023-04-08T09:43:01;23.35;;;16.63;;
59127;SDS011;44912;52.754;5.994;2023-04-08T09:45:29;20.90;;;15.63;;
59127;SDS011;44912;52.754;5.994;2023-04-08T09:48:04;23.08;;;16.40;;
59127;SDS011;44912;52.754;5.994;2023-04-08T09:50:39;20.52;;;16.10;;
59127;SDS011;44912;52.754;5.994;2023-04-08T09:53:10;21.70;;;17.20;;
59127;SDS011;44912;52.754;5.994;2023-04-08T09:55:42;22.70;;;17.50;;
59127;SDS011;44912;52.754;5.994;2023-04-08T09:58:14;23.50;;;17.50;;
59127;SDS011;44912;52.754;5.994;2023-04-08T10:00:45;20.08;;;16.95;;
59127;SDS011;44912;52.754;5.994;2023-04-08T10:03:36;19.77;;;15.50;;
59127;SDS011;44912;52.754;5.994;2023-04-08T10:06:04;22.00;;;17.98;;
59127;SDS011;44912;52.754;5.994;2023-04-08T10:08:32;21.70;;;16.98;;
59127;SDS011;44912;52.754;5.994;2023-04-08T10:10:58;22.63;;;17.73;;
59127;SDS011;44912;52.754;5.994;2023-04-08T10:13:24;20.52;;;16.10;;
59127;SDS011;44912;52.754;5.994;2023-04-08T10:15:53;21.20;;;16.48;;
59127;SDS011;44912;52.754;5.994;2023-04-08T10:18:41;21.00;;;15.43;;
59127;SDS011;44912;52.754;5.994;2023-04-08T10:21:29;18.38;;;14.65;;
59127;SDS011;44912;52.754;5.994;2023-04-08T10:23:58;17.90;;;14.52;;
59127;SDS011;44912;52.754;5.994;2023-04-08T10:26:29;19.67;;;16.27;;
59127;SDS011;44912;52.754;5.994;2023-04-08T10:29:28;19.90;;;15.27;;
59127;SDS011;44912;52.754;5.994;2023-04-08T10:34:20;18.40;;;15.52;;
59127;SDS011;44912;52.754;5.994;2023-04-08T10:36:47;19.15;;;14.75;;
59127;SDS011;44912;52.754;5.994;2023-04-08T10:39:13;20.85;;;16.67;;
59127;SDS011;44912;52.754;5.994;2023-04-08T10:41:41;19.75;;;16.33;;
59127;SDS011;44912;52.754;5.994;2023-04-08T10:44:22;18.77;;;15.77;;
59127;SDS011;44912;52.754;5.994;2023-04-08T10:46:52;19.77;;;16.52;;
59127;SDS011;44912;52.754;5.994;2023-04-08T10:49:18;20.48;;;15.70;;
59127;SDS011;44912;52.754;5.994;2023-04-08T10:51:44;18.10;;;15.90;;
59127;SDS011;44912;52.754;5.994;2023-04-08T10:54:11;18.45;;;15.50;;
59127;SDS011;44912;52.754;5.994;2023-04-08T10:56:45;21.58;;;16.15;;
59127;SDS011;44912;52.754;5.994;2023-04-08T10:59:13;20.10;;;15.85;;
59127;SDS011;44912;52.754;5.994;2023-04-08T11:01:51;19.83;;;15.93;;
59127;SDS011;44912;52.754;5.994;2023-04-08T11:04:17;20.08;;;15.88;;
59127;SDS011;44912;52.754;5.994;2023-04-08T11:06:43;18.00;;;14.77;;
59127;SDS011;44912;52.754;5.994;2023-04-08T11:09:10;19.45;;;15.07;;
59127;SDS011;44912;52.754;5.994;2023-04-08T11:11:37;18.90;;;16.02;;
59127;SDS011;44912;52.754;5.994;2023-04-08T11:14:05;17.30;;;14.65;;
59127;SDS011;44912;52.754;5.994;2023-04-08T11:16:31;17.30;;;13.93;;
59127;SDS011;44912;52.754;5.994;2023-04-08T11:18:57;17.70;;;13.63;;
59127;SDS011;44912;52.754;5.994;2023-04-08T11:21:23;16.73;;;13.23;;
59127;SDS011;44912;52.754;5.994;2023-04-08T11:23:49;16.63;;;14.40;;
59127;SDS011;44912;52.754;5.994;2023-04-08T11:26:16;18.60;;;14.52;;
59127;SDS011;44912;52.754;5.994;2023-04-08T11:28:46;17.00;;;13.43;;
59127;SDS011;44912;52.754;5.994;2023-04-08T11:31:15;17.75;;;13.73;;
59127;SDS011;44912;52.754;5.994;2023-04-08T11:33:48;17.40;;;13.45;;
59127;SDS011;44912;52.754;5.994;2023-04-08T11:36:16;16.27;;;13.82;;
59127;SDS011;44912;52.754;5.994;2023-04-08T11:38:42;16.90;;;13.23;;
59127;SDS011;44912;52.754;5.994;2023-04-08T11:41:09;15.40;;;13.32;;
59127;SDS011;44912;52.754;5.994;2023-04-08T11:43:36;15.68;;;13.13;;
59127;SDS011;44912;52.754;5.994;2023-04-08T11:46:08;16.50;;;12.68;;
59127;SDS011;44912;52.754;5.994;2023-04-08T11:48:35;15.63;;;12.82;;
59127;SDS011;44912;52.754;5.994;2023-04-08T11:51:03;14.93;;;12.40;;
59127;SDS011;44912;52.754;5.994;2023-04-08T11:53:32;15.73;;;12.82;;
59127;SDS011;44912;52.754;5.994;2023-04-08T11:56:14;15.35;;;12.45;;
59127;SDS011;44912;52.754;5.994;2023-04-08T11:58:43;16.10;;;12.83;;
59127;SDS011;44912;52.754;5.994;2023-04-08T12:01:09;14.68;;;11.80;;
59127;SDS011;44912;52.754;5.994;2023-04-08T12:03:35;15.20;;;12.75;;
59127;SDS011;44912;52.754;5.994;2023-04-08T12:06:01;15.93;;;12.88;;
59127;SDS011;44912;52.754;5.994;2023-04-08T12:08:26;15.23;;;12.50;;
59127;SDS011;44912;52.754;5.994;2023-04-08T12:10:52;14.90;;;12.00;;
59127;SDS011;44912;52.754;5.994;2023-04-08T12:13:18;14.57;;;12.10;;
59127;SDS011;44912;52.754;5.994;2023-04-08T12:15:43;15.10;;;11.85;;
59127;SDS011;44912;52.754;5.994;2023-04-08T12:18:09;16.10;;;12.40;;
59127;SDS011;44912;52.754;5.994;2023-04-08T12:20:34;14.82;;;12.48;;
59127;SDS011;44912;52.754;5.994;2023-04-08T12:23:00;16.00;;;11.63;;
59127;SDS011;44912;52.754;5.994;2023-04-08T12:25:26;14.25;;;11.30;;
59127;SDS011;44912;52.754;5.994;2023-04-08T12:27:51;15.45;;;11.73;;
59127;SDS011;44912;52.754;5.994;2023-04-08T12:30:17;14.48;;;11.63;;
59127;SDS011;44912;52.754;5.994;2023-04-08T12:32:43;14.15;;;11.73;;
59127;SDS011;44912;52.754;5.994;2023-04-08T12:35:10;14.23;;;11.20;;
59127;SDS011;44912;52.754;5.994;2023-04-08T12:37:35;13.90;;;11.60;;
59127;SDS011;44912;52.754;5.994;2023-04-08T12:40:01;14.77;;;11.75;;
59127;SDS011;44912;52.754;5.994;2023-04-08T12:42:27;15.02;;;11.40;;
59127;SDS011;44912;52.754;5.994;2023-04-08T12:44:52;15.18;;;12.05;;
59127;SDS011;44912;52.754;5.994;2023-04-08T12:47:18;15.40;;;12.38;;
59127;SDS011;44912;52.754;5.994;2023-04-08T12:49:43;15.70;;;12.80;;
59127;SDS011;44912;52.754;5.994;2023-04-08T12:52:09;14.88;;;11.95;;
59127;SDS011;44912;52.754;5.994;2023-04-08T12:54:34;15.23;;;12.20;;
59127;SDS011;44912;52.754;5.994;2023-04-08T12:57:00;13.95;;;12.07;;
59127;SDS011;44912;52.754;5.994;2023-04-08T12:59:26;13.95;;;11.75;;
59127;SDS011;44912;52.754;5.994;2023-04-08T13:01:52;13.93;;;11.30;;
59127;SDS011;44912;52.754;5.994;2023-04-08T13:04:17;15.55;;;11.98;;
59127;SDS011;44912;52.754;5.994;2023-04-08T13:06:43;14.15;;;11.32;;
59127;SDS011;44912;52.754;5.994;2023-04-08T13:09:09;15.55;;;11.93;;
59127;SDS011;44912;52.754;5.994;2023-04-08T13:11:35;14.68;;;11.40;;
59127;SDS011;44912;52.754;5.994;2023-04-08T13:14:01;13.80;;;11.48;;
59127;SDS011;44912;52.754;5.994;2023-04-08T13:16:27;13.95;;;11.30;;
59127;SDS011;44912;52.754;5.994;2023-04-08T13:18:52;17.17;;;11.80;;
59127;SDS011;44912;52.754;5.994;2023-04-08T13:21:18;15.48;;;13.07;;
59127;SDS011;44912;52.754;5.994;2023-04-08T13:23:43;14.38;;;12.50;;
59127;SDS011;44912;52.754;5.994;2023-04-08T13:26:10;15.65;;;12.65;;
59127;SDS011;44912;52.754;5.994;2023-04-08T13:28:36;14.98;;;12.18;;
59127;SDS011;44912;52.754;5.994;2023-04-08T13:31:02;16.98;;;12.43;;
59127;SDS011;44912;52.754;5.994;2023-04-08T13:33:27;17.50;;;12.88;;
59127;SDS011;44912;52.754;5.994;2023-04-08T13:35:53;15.85;;;12.30;;
59127;SDS011;44912;52.754;5.994;2023-04-08T13:38:18;13.60;;;11.52;;
59127;SDS011;44912;52.754;5.994;2023-04-08T13:40:44;14.15;;;11.60;;
59127;SDS011;44912;52.754;5.994;2023-04-08T13:43:10;14.68;;;12.00;;
59127;SDS011;44912;52.754;5.994;2023-04-08T13:45:35;16.02;;;12.48;;
59127;SDS011;44912;52.754;5.994;2023-04-08T13:48:01;14.73;;;11.88;;
59127;SDS011;44912;52.754;5.994;2023-04-08T13:50:26;17.95;;;11.82;;
59127;SDS011;44912;52.754;5.994;2023-04-08T13:52:52;16.70;;;12.48;;
59127;SDS011;44912;52.754;5.994;2023-04-08T13:55:17;16.00;;;11.73;;
59127;SDS011;44912;52.754;5.994;2023-04-08T13:57:43;13.85;;;11.20;;
59127;SDS011;44912;52.754;5.994;2023-04-08T14:00:08;13.40;;;10.73;;
59127;SDS011;44912;52.754;5.994;2023-04-08T14:02:34;14.88;;;11.75;;
59127;SDS011;44912;52.754;5.994;2023-04-08T14:05:00;14.13;;;11.18;;
59127;SDS011;44912;52.754;5.994;2023-04-08T14:07:25;15.50;;;11.02;;
59127;SDS011;44912;52.754;5.994;2023-04-08T14:09:51;14.45;;;11.18;;
59127;SDS011;44912;52.754;5.994;2023-04-08T14:12:17;13.63;;;10.90;;
59127;SDS011;44912;52.754;5.994;2023-04-08T14:14:42;13.02;;;10.38;;
59127;SDS011;44912;52.754;5.994;2023-04-08T14:17:08;12.13;;;9.55;;
59127;SDS011;44912;52.754;5.994;2023-04-08T14:19:33;12.13;;;9.35;;
59127;SDS011;44912;52.754;5.994;2023-04-08T14:21:59;11.60;;;9.23;;
59127;SDS011;44912;52.754;5.994;2023-04-08T14:24:25;11.45;;;9.13;;
59127;SDS011;44912;52.754;5.994;2023-04-08T14:26:51;11.48;;;8.77;;
59127;SDS011;44912;52.754;5.994;2023-04-08T14:29:16;12.48;;;8.60;;